createdAt,value
2018-04-19T00:00:58.680Z,47.00
2018-04-19T00:03:27.025Z,46.98
2018-04-19T00:05:55.537Z,47.20
2018-04-19T00:08:23.947Z,47.41
2018-04-19T00:10:52.329Z,47.02
2018-04-19T00:13:21.087Z,47.20
2018-04-19T00:15:49.250Z,47.84
2018-04-19T00:18:17.838Z,48.19
2018-04-19T00:20:46.284Z,49.47
2018-04-19T00:23:14.637Z,49.65
2018-04-19T00:25:43.076Z,50.41
2018-04-19T00:28:11.383Z,51.98
2018-04-19T00:30:39.626Z,50.48
2018-04-19T00:33:08.408Z,49.16
2018-04-19T00:35:37.163Z,49.98
2018-04-19T00:38:05.690Z,50.99
2018-04-19T00:40:33.961Z,50.49
2018-04-19T00:43:02.351Z,50.94
2018-04-19T00:45:30.706Z,50.62
2018-04-19T00:47:59.192Z,50.93
2018-04-19T00:50:27.709Z,49.94
2018-04-19T00:53:07.893Z,49.01
2018-04-19T00:55:37.423Z,48.49
2018-04-19T00:58:06.008Z,48.70
2018-04-19T01:00:34.560Z,48.84
2018-04-19T01:03:03.085Z,49.11
2018-04-19T01:05:31.957Z,48.96
2018-04-19T01:08:00.399Z,48.52
2018-04-19T01:10:28.630Z,48.81
2018-04-19T01:12:57.126Z,48.63
2018-04-19T01:15:25.751Z,49.80
2018-04-19T01:17:54.182Z,49.65
2018-04-19T01:20:22.840Z,50.28
2018-04-19T01:22:51.084Z,56.99
2018-04-19T01:25:19.676Z,54.18
2018-04-19T01:27:48.089Z,53.14
2018-04-19T01:30:16.374Z,52.15
2018-04-19T01:32:45.041Z,53.10
2018-04-19T01:35:13.830Z,56.43
2018-04-19T01:37:42.044Z,56.13
2018-04-19T01:40:10.719Z,52.59
2018-04-19T01:42:38.961Z,59.29
2018-04-19T01:45:07.249Z,54.76
2018-04-19T01:47:35.723Z,54.12
2018-04-19T01:50:03.907Z,55.72
2018-04-19T01:52:32.381Z,53.91
2018-04-19T01:55:01.163Z,53.41
2018-04-19T01:57:29.737Z,51.57
2018-04-19T01:59:58.133Z,50.80
2018-04-19T02:02:26.807Z,51.01
2018-04-19T02:04:55.121Z,50.11
2018-04-19T02:07:23.873Z,49.70
2018-04-19T02:09:52.141Z,49.39
2018-04-19T02:12:20.433Z,50.15
2018-04-19T02:14:48.962Z,51.09
2018-04-19T02:17:17.482Z,50.41
2018-04-19T02:19:45.847Z,49.23
2018-04-19T02:22:14.138Z,49.40
2018-04-19T02:24:42.336Z,52.55
2018-04-19T02:27:10.586Z,51.30
2018-04-19T02:29:39.376Z,50.41
2018-04-19T02:32:07.661Z,50.97
2018-04-19T02:34:36.234Z,51.21
2018-04-19T02:37:04.610Z,51.89
2018-04-19T02:39:32.997Z,50.40
2018-04-19T02:42:01.573Z,50.31
2018-04-19T02:44:30.002Z,50.06
2018-04-19T02:46:58.438Z,50.38
2018-04-19T02:49:27.140Z,52.05
2018-04-19T02:51:55.555Z,52.12
2018-04-19T02:54:24.038Z,52.37
2018-04-19T02:56:52.863Z,51.64
2018-04-19T02:59:22.537Z,51.29
2018-04-19T03:01:50.860Z,50.92
2018-04-19T03:04:19.186Z,51.67
2018-04-19T03:06:47.722Z,51.52
2018-04-19T03:09:16.605Z,51.83
2018-04-19T03:11:45.273Z,55.59
2018-04-19T03:14:13.372Z,56.13
2018-04-19T03:16:41.824Z,56.64
2018-04-19T03:19:10.276Z,54.50
2018-04-19T03:21:38.685Z,53.72
2018-04-19T03:24:06.979Z,53.53
2018-04-19T03:26:35.544Z,52.79
2018-04-19T03:29:04.137Z,51.82
2018-04-19T03:31:32.408Z,51.75
2018-04-19T03:34:00.897Z,51.38
2018-04-19T03:36:29.460Z,51.86
2018-04-19T03:38:57.830Z,51.11
2018-04-19T03:41:26.552Z,51.05
2018-04-19T03:43:55.222Z,50.53
2018-04-19T03:46:23.806Z,52.23
2018-04-19T03:48:52.072Z,51.88
2018-04-19T03:51:20.602Z,51.13
2018-04-19T03:53:48.731Z,50.68
2018-04-19T03:56:17.222Z,50.97
2018-04-19T03:58:45.996Z,51.48
2018-04-19T04:01:15.093Z,54.52
2018-04-19T04:03:43.572Z,54.75
2018-04-19T04:06:12.066Z,55.58
2018-04-19T04:08:40.634Z,56.43
2018-04-19T04:11:09.321Z,57.16
2018-04-19T04:13:37.726Z,55.12
2018-04-19T04:16:06.282Z,54.36
2018-04-19T04:18:46.309Z,54.68
2018-04-19T04:21:20.103Z,56.75
2018-04-19T04:23:54.360Z,57.82
2018-04-19T04:26:22.642Z,58.04
2018-04-19T04:28:51.837Z,55.86
2018-04-19T04:31:20.270Z,54.33
2018-04-19T04:33:49.006Z,53.38
2018-04-19T04:36:17.398Z,55.43
2018-04-19T04:38:45.663Z,54.88
2018-04-19T04:41:14.221Z,55.26
2018-04-19T04:43:42.437Z,53.80
2018-04-19T04:46:11.081Z,53.08
2018-04-19T04:48:39.429Z,52.20
2018-04-19T04:51:07.705Z,52.40
2018-04-19T04:53:36.288Z,51.82
2018-04-19T04:56:04.808Z,51.54
2018-04-19T04:58:33.282Z,50.79
2018-04-19T05:01:01.766Z,50.63
2018-04-19T05:03:29.944Z,50.31
2018-04-19T05:05:58.428Z,49.82
2018-04-19T05:08:26.766Z,49.63
2018-04-19T05:10:55.302Z,49.12
2018-04-19T05:13:23.721Z,49.42
2018-04-19T05:15:52.263Z,49.07
2018-04-19T05:18:20.513Z,52.19
2018-04-19T05:20:48.906Z,50.11
2018-04-19T05:23:17.061Z,51.46
2018-04-19T05:25:45.451Z,51.94
2018-04-19T05:28:13.932Z,50.50
2018-04-19T05:30:42.598Z,49.66
2018-04-19T05:33:10.894Z,52.49
2018-04-19T05:35:39.482Z,52.99
2018-04-19T05:38:08.047Z,52.14
2018-04-19T05:40:36.395Z,53.48
2018-04-19T05:43:04.908Z,53.40
2018-04-19T05:45:33.292Z,54.93
2018-04-19T05:48:01.933Z,54.16
2018-04-19T05:50:30.548Z,52.62
2018-04-19T05:52:59.234Z,52.18
2018-04-19T05:55:28.221Z,50.88
2018-04-19T05:57:56.696Z,49.79
2018-04-19T06:00:24.935Z,47.17
2018-04-19T06:02:53.780Z,46.74
2018-04-19T06:05:22.349Z,46.11
2018-04-19T06:07:50.789Z,45.59
2018-04-19T06:10:19.513Z,45.55
2018-04-19T06:12:48.092Z,45.15
2018-04-19T06:15:16.910Z,42.44
2018-04-19T06:17:45.435Z,42.52
2018-04-19T06:20:14.138Z,42.03
2018-04-19T06:22:42.857Z,41.34
2018-04-19T06:25:11.422Z,40.70
2018-04-19T06:27:39.832Z,40.25
2018-04-19T06:30:08.402Z,39.55
2018-04-19T06:32:36.971Z,39.20
2018-04-19T06:35:05.275Z,42.34
2018-04-19T06:37:33.637Z,42.29
2018-04-19T06:40:01.992Z,43.52
2018-04-19T06:42:30.395Z,41.63
2018-04-19T06:44:58.952Z,41.64
2018-04-19T06:47:27.538Z,41.67
2018-04-19T06:49:55.835Z,42.15
2018-04-19T06:52:24.403Z,40.86
2018-04-19T06:54:52.790Z,39.63
2018-04-19T06:57:21.181Z,40.33
2018-04-19T06:59:49.190Z,41.60
2018-04-19T07:02:17.712Z,45.96
2018-04-19T07:04:46.187Z,46.47
2018-04-19T07:07:14.144Z,47.04
2018-04-19T07:09:42.182Z,46.57
2018-04-19T07:12:10.259Z,46.35
2018-04-19T07:14:38.240Z,49.26
2018-04-19T07:17:06.582Z,48.30
2018-04-19T07:19:34.593Z,47.16
2018-04-19T07:22:02.581Z,45.89
2018-04-19T07:24:30.587Z,44.74
2018-04-19T07:26:58.653Z,45.52
2018-04-19T07:29:26.658Z,44.00
2018-04-19T07:31:54.825Z,43.57
2018-04-19T07:34:22.901Z,43.07
2018-04-19T07:36:50.978Z,41.32
2018-04-19T07:39:19.065Z,39.97
2018-04-19T07:41:47.062Z,39.14
2018-04-19T07:44:15.064Z,37.13
2018-04-19T07:46:43.140Z,36.10
2018-04-19T07:49:11.154Z,36.14
2018-04-19T07:51:39.249Z,33.77
2018-04-19T07:54:07.257Z,33.10
2018-04-19T07:56:35.236Z,34.63
2018-04-19T07:59:03.263Z,33.84
2018-04-19T08:01:31.278Z,35.02
2018-04-19T08:03:59.333Z,35.96
2018-04-19T08:06:27.387Z,35.84
2018-04-19T08:08:55.398Z,35.63
2018-04-19T08:11:23.414Z,37.51
2018-04-19T08:13:51.622Z,37.68
2018-04-19T08:16:19.666Z,36.68
2018-04-19T08:18:48.143Z,35.10
2018-04-19T08:21:16.189Z,34.45
2018-04-19T08:23:44.242Z,35.11
2018-04-19T08:26:12.372Z,34.40
2018-04-19T08:28:40.355Z,34.70
2018-04-19T08:31:08.438Z,33.57
2018-04-19T08:33:36.479Z,31.86
2018-04-19T08:36:04.461Z,33.53
2018-04-19T08:38:32.489Z,33.53
2018-04-19T08:41:00.473Z,34.56
2018-04-19T08:43:28.489Z,33.52
2018-04-19T08:45:56.590Z,32.95
2018-04-19T08:48:24.629Z,30.88
2018-04-19T08:50:53.244Z,29.95
2018-04-19T08:53:21.659Z,29.55
2018-04-19T08:55:49.710Z,27.36
2018-04-19T08:58:17.755Z,25.39
2018-04-19T09:00:45.783Z,24.70
2018-04-19T09:03:13.801Z,23.99
2018-04-19T09:05:41.827Z,24.44
2018-04-19T09:08:09.865Z,25.11
2018-04-19T09:10:37.913Z,26.82
2018-04-19T09:13:05.919Z,27.88
2018-04-19T09:15:33.891Z,27.67
2018-04-19T09:18:01.948Z,29.41
2018-04-19T09:20:30.305Z,27.28
2018-04-19T09:22:58.375Z,29.40
2018-04-19T09:25:26.403Z,30.38
2018-04-19T09:27:54.415Z,29.78
2018-04-19T09:30:23.144Z,28.69
2018-04-19T09:32:51.668Z,29.00
2018-04-19T09:35:19.955Z,29.65
2018-04-19T09:37:48.031Z,30.29
2018-04-19T09:40:16.055Z,32.70
2018-04-19T09:42:44.019Z,32.46
2018-04-19T09:45:12.029Z,31.91
2018-04-19T09:47:40.009Z,32.69
2018-04-19T09:50:08.078Z,31.87
2018-04-19T09:52:36.088Z,31.91
2018-04-19T09:55:04.064Z,30.95
2018-04-19T09:57:32.047Z,31.27
2018-04-19T10:00:00.087Z,32.17
2018-04-19T10:02:29.012Z,31.45
2018-04-19T10:05:03.069Z,30.37
2018-04-19T10:07:31.078Z,30.17
2018-04-19T10:09:59.079Z,31.72
2018-04-19T10:12:27.123Z,33.44
2018-04-19T10:14:55.156Z,33.86
2018-04-19T10:17:23.213Z,33.94
2018-04-19T10:19:51.246Z,33.71
2018-04-19T10:22:19.732Z,32.51
2018-04-19T10:24:47.741Z,32.08
2018-04-19T10:27:15.747Z,32.39
2018-04-19T10:29:43.771Z,33.10
2018-04-19T10:32:11.777Z,33.30
2018-04-19T10:34:39.725Z,34.80
2018-04-19T10:37:07.757Z,32.52
2018-04-19T10:39:35.898Z,32.74
2018-04-19T10:42:04.065Z,32.52
2018-04-19T10:44:32.052Z,33.07
2018-04-19T10:47:00.142Z,31.15
2018-04-19T10:49:28.131Z,30.46
2018-04-19T10:51:56.203Z,29.31
2018-04-19T10:54:24.132Z,28.88
2018-04-19T10:56:52.151Z,29.06
2018-04-19T10:59:20.282Z,27.25
2018-04-19T11:01:48.342Z,26.43
2018-04-19T11:04:16.340Z,26.43
2018-04-19T11:06:44.402Z,25.78
2018-04-19T11:09:12.425Z,25.21
2018-04-19T11:11:40.421Z,26.68
2018-04-19T11:14:08.419Z,26.56
2018-04-19T11:16:36.436Z,25.23
2018-04-19T11:19:04.547Z,20.94
2018-04-19T11:21:32.469Z,23.92
2018-04-19T11:24:00.704Z,23.59
2018-04-19T11:26:28.744Z,21.90
2018-04-19T11:28:56.816Z,22.91
2018-04-19T11:31:24.849Z,20.97
2018-04-19T11:33:52.950Z,21.68
2018-04-19T11:36:20.970Z,23.39
2018-04-19T11:38:48.961Z,23.80
2018-04-19T11:41:17.025Z,23.38
2018-04-19T11:43:44.999Z,23.67
2018-04-19T11:46:12.991Z,24.22
2018-04-19T11:48:41.003Z,24.84
2018-04-19T11:51:09.037Z,24.71
2018-04-19T11:53:37.181Z,23.15
2018-04-19T11:56:05.204Z,21.21
2018-04-19T11:58:33.181Z,21.67
2018-04-19T12:01:01.237Z,21.97
2018-04-19T12:03:29.299Z,23.27
2018-04-19T12:05:57.347Z,24.95
2018-04-19T12:08:25.387Z,25.90
2018-04-19T12:10:53.459Z,25.80
2018-04-19T12:13:21.425Z,24.85
2018-04-19T12:15:49.528Z,25.69
2018-04-19T12:18:17.605Z,26.76
2018-04-19T12:20:45.678Z,25.62
2018-04-19T12:23:13.760Z,26.12
2018-04-19T12:25:41.817Z,26.49
2018-04-19T12:28:09.783Z,27.00
2018-04-19T12:30:37.790Z,27.41
2018-04-19T12:33:05.800Z,27.60
2018-04-19T12:35:33.901Z,29.20
2018-04-19T12:38:01.981Z,30.59
2018-04-19T12:40:29.949Z,30.17
2018-04-19T12:42:57.959Z,30.82
2018-04-19T12:45:25.971Z,31.89
2018-04-19T12:47:54.036Z,31.51
2018-04-19T12:50:22.059Z,31.69
2018-04-19T12:52:50.054Z,32.05
2018-04-19T12:55:18.084Z,32.22
2018-04-19T12:57:46.126Z,32.76
2018-04-19T13:00:14.176Z,31.94
2018-04-19T13:02:42.197Z,30.38
2018-04-19T13:05:10.259Z,29.16
2018-04-19T13:07:38.290Z,29.45
2018-04-19T13:10:06.301Z,29.18
2018-04-19T13:12:34.265Z,27.58
2018-04-19T13:15:02.289Z,26.87
2018-04-19T13:17:30.281Z,26.12
2018-04-19T13:19:58.700Z,26.56
2018-04-19T13:22:27.080Z,26.35
2018-04-19T13:24:55.161Z,26.55
2018-04-19T13:27:23.517Z,24.72
2018-04-19T13:29:51.584Z,23.73
2018-04-19T13:32:19.602Z,24.53
2018-04-19T13:34:47.630Z,24.91
2018-04-19T13:37:15.675Z,24.29
2018-04-19T13:39:43.770Z,24.36
2018-04-19T13:42:11.832Z,24.46
2018-04-19T13:44:39.855Z,22.88
2018-04-19T13:47:07.921Z,22.87
2018-04-19T13:49:36.028Z,24.35
2018-04-19T13:52:04.125Z,25.50
2018-04-19T13:54:32.162Z,26.53
2018-04-19T13:57:00.229Z,25.75
2018-04-19T13:59:28.299Z,25.85
2018-04-19T14:01:56.404Z,25.20
2018-04-19T14:04:24.422Z,25.66
2018-04-19T14:06:52.390Z,25.00
2018-04-19T14:09:20.464Z,25.36
2018-04-19T14:11:48.459Z,25.14
2018-04-19T14:14:16.447Z,25.58
2018-04-19T14:16:44.520Z,24.43
2018-04-19T14:19:12.518Z,25.70
2018-04-19T14:21:40.542Z,24.62
2018-04-19T14:24:08.603Z,24.73
2018-04-19T14:26:36.638Z,24.93
2018-04-19T14:29:05.738Z,26.20
2018-04-19T14:31:33.748Z,26.63
2018-04-19T14:34:01.734Z,26.45
2018-04-19T14:36:29.952Z,25.39
2018-04-19T14:38:58.086Z,25.00
2018-04-19T14:41:27.230Z,25.68
2018-04-19T14:43:55.265Z,26.23
2018-04-19T14:46:23.357Z,26.59
2018-04-19T14:48:51.446Z,27.46
2018-04-19T14:51:19.547Z,27.25
2018-04-19T14:53:47.537Z,27.33
2018-04-19T14:56:15.557Z,27.96
2018-04-19T14:58:43.536Z,28.62
2018-04-19T15:01:11.918Z,28.33
2018-04-19T15:03:41.633Z,27.36
2018-04-19T15:06:09.641Z,28.36
2018-04-19T15:08:37.617Z,29.43
2018-04-19T15:11:05.573Z,30.03
2018-04-19T15:13:33.590Z,29.63
2018-04-19T15:16:01.651Z,29.09
2018-04-19T15:18:29.612Z,29.88
2018-04-19T15:20:57.586Z,30.07
2018-04-19T15:23:25.754Z,30.34
2018-04-19T15:25:53.989Z,30.32
2018-04-19T15:28:22.095Z,31.51
2018-04-19T15:30:50.460Z,32.19
2018-04-19T15:33:18.849Z,32.73
2018-04-19T15:35:47.575Z,32.07
2018-04-19T15:38:15.865Z,31.14
2018-04-19T15:40:44.214Z,30.74
2018-04-19T15:43:12.248Z,30.09
2018-04-19T15:45:40.294Z,30.12
2018-04-19T15:48:08.579Z,30.36
2018-04-19T15:50:37.122Z,30.54
2018-04-19T15:53:05.625Z,31.65
2018-04-19T15:55:33.947Z,32.11
2018-04-19T15:58:02.671Z,34.71
2018-04-19T16:00:30.691Z,33.76
2018-04-19T16:02:58.697Z,34.59
2018-04-19T16:05:26.754Z,35.17
2018-04-19T16:07:55.160Z,34.60
2018-04-19T16:10:23.629Z,35.94
2018-04-19T16:12:52.317Z,35.49
2018-04-19T16:15:20.779Z,35.19
2018-04-19T16:17:48.812Z,37.57
2018-04-19T16:20:16.825Z,37.74
2018-04-19T16:22:44.855Z,38.40
2018-04-19T16:25:12.943Z,39.70
2018-04-19T16:27:41.407Z,40.84
2018-04-19T16:30:09.756Z,41.11
2018-04-19T16:32:38.626Z,40.32
2018-04-19T16:35:07.414Z,39.32
2018-04-19T16:37:35.718Z,39.06
2018-04-19T16:40:05.200Z,38.93
2018-04-19T16:42:33.739Z,39.35
2018-04-19T16:45:02.129Z,39.85
2018-04-19T16:47:30.542Z,40.56
2018-04-19T16:49:59.151Z,39.92
2018-04-19T16:52:27.615Z,40.59
2018-04-19T16:54:55.971Z,42.20
2018-04-19T16:57:24.263Z,41.30
2018-04-19T16:59:52.673Z,43.54
2018-04-19T17:02:20.814Z,42.05
2018-04-19T17:04:49.273Z,41.87
2018-04-19T17:07:17.674Z,41.92
2018-04-19T17:09:46.034Z,43.38
2018-04-19T17:12:14.150Z,43.59
2018-04-19T17:14:42.688Z,42.82
2018-04-19T17:17:11.161Z,44.52
2018-04-19T17:19:39.685Z,43.48
2018-04-19T17:22:07.799Z,44.63
2018-04-19T17:24:35.811Z,43.72
2018-04-19T17:27:04.462Z,44.06
2018-04-19T17:29:32.790Z,43.83
2018-04-19T17:32:01.298Z,43.69
2018-04-19T17:34:30.216Z,43.94
2018-04-19T17:36:58.815Z,44.13
2018-04-19T17:39:27.355Z,44.14
2018-04-19T17:41:55.895Z,45.26
2018-04-19T17:44:24.499Z,44.93
2018-04-19T17:46:53.550Z,45.11
2018-04-19T17:49:21.859Z,45.90
2018-04-19T17:51:50.516Z,45.17
2018-04-19T17:54:18.485Z,45.39
2018-04-19T17:56:46.590Z,46.37
2018-04-19T17:59:14.991Z,46.33
2018-04-19T18:01:43.516Z,46.19
2018-04-19T18:04:11.885Z,46.21
2018-04-19T18:06:40.316Z,46.59
2018-04-19T18:09:08.866Z,46.10
2018-04-19T18:11:37.221Z,46.35
2018-04-19T18:14:05.722Z,46.02
2018-04-19T18:16:34.084Z,45.97
2018-04-19T18:19:02.665Z,46.06
2018-04-19T18:21:31.193Z,45.78
2018-04-19T18:23:59.625Z,45.99
2018-04-19T18:26:28.022Z,47.02
2018-04-19T18:28:56.198Z,46.39
2018-04-19T18:31:24.722Z,46.22
2018-04-19T18:33:53.337Z,46.42
2018-04-19T18:36:21.899Z,46.62
2018-04-19T18:38:50.417Z,46.04
2018-04-19T18:41:18.682Z,45.92
2018-04-19T18:43:47.432Z,45.65
2018-04-19T18:46:15.862Z,46.21
2018-04-19T18:48:44.434Z,45.81
2018-04-19T18:51:12.824Z,45.67
2018-04-19T18:53:41.291Z,45.43
2018-04-19T18:56:09.436Z,46.42
2018-04-19T18:58:38.199Z,48.31
2018-04-19T19:01:06.938Z,47.57
2018-04-19T19:03:35.363Z,46.45
2018-04-19T19:06:03.605Z,46.47
2018-04-19T19:08:32.171Z,46.23
2018-04-19T19:11:00.924Z,46.94
2018-04-19T19:13:29.581Z,47.30
2018-04-19T19:16:12.732Z,46.64
2018-04-19T19:18:52.864Z,46.74
2018-04-19T19:21:21.312Z,46.77
2018-04-19T19:23:49.851Z,45.76
2018-04-19T19:26:18.176Z,45.76
2018-04-19T19:28:46.604Z,46.34
2018-04-19T19:31:14.929Z,46.97
2018-04-19T19:33:43.597Z,46.47
2018-04-19T19:36:11.825Z,46.66
2018-04-19T19:38:40.379Z,47.38
2018-04-19T19:41:08.729Z,46.76
2018-04-19T19:43:36.953Z,47.38
2018-04-19T19:46:05.555Z,47.38
2018-04-19T19:48:34.137Z,46.36
2018-04-19T19:51:02.853Z,45.94
2018-04-19T19:53:31.338Z,46.90
2018-04-19T19:55:59.666Z,47.03
2018-04-19T19:58:27.894Z,46.82
2018-04-19T20:00:56.398Z,47.98
2018-04-19T20:03:25.050Z,47.65
2018-04-19T20:05:53.359Z,48.00
2018-04-19T20:08:22.098Z,48.74
2018-04-19T20:10:50.511Z,47.96
2018-04-19T20:13:18.864Z,47.53
2018-04-19T20:15:47.466Z,48.53
2018-04-19T20:18:15.631Z,49.58
2018-04-19T20:20:43.976Z,48.72
2018-04-19T20:23:12.711Z,49.20
2018-04-19T20:25:41.164Z,49.86
2018-04-19T20:28:09.352Z,49.51
2018-04-19T20:30:37.353Z,49.53
2018-04-19T20:33:05.413Z,48.39
2018-04-19T20:35:33.390Z,49.36
2018-04-19T20:38:02.045Z,49.16
2018-04-19T20:40:30.770Z,49.75
2018-04-19T20:42:59.475Z,48.99
2018-04-19T20:45:28.015Z,49.46
2018-04-19T20:47:56.366Z,49.81
2018-04-19T20:50:24.773Z,50.04
2018-04-19T20:52:53.542Z,51.50
2018-04-19T20:55:22.073Z,51.16
2018-04-19T20:57:50.509Z,50.09
2018-04-19T21:00:18.976Z,50.76
2018-04-19T21:02:47.522Z,52.58
2018-04-19T21:05:15.950Z,51.78
2018-04-19T21:07:44.804Z,51.75
2018-04-19T21:10:13.320Z,50.54
2018-04-19T21:12:41.615Z,51.77
2018-04-19T21:15:10.472Z,51.24
2018-04-19T21:17:39.019Z,50.88
2018-04-19T21:20:07.451Z,50.97
2018-04-19T21:22:36.117Z,51.92
2018-04-19T21:25:04.700Z,52.01
2018-04-19T21:27:33.222Z,53.81
2018-04-19T21:30:01.763Z,55.15
2018-04-19T21:32:29.976Z,53.60
2018-04-19T21:34:58.420Z,53.70
2018-04-19T21:37:26.811Z,56.04
2018-04-19T21:39:55.285Z,55.43
2018-04-19T21:42:23.822Z,54.19
2018-04-19T21:44:52.333Z,53.99
2018-04-19T21:47:20.828Z,53.69
2018-04-19T21:49:49.200Z,53.60
2018-04-19T21:52:17.552Z,52.78
2018-04-19T21:54:46.020Z,52.82
2018-04-19T21:57:14.451Z,53.52
2018-04-19T21:59:42.894Z,53.71
2018-04-19T22:02:11.410Z,53.25
2018-04-19T22:04:40.075Z,52.58
2018-04-19T22:07:08.323Z,53.29
2018-04-19T22:09:37.071Z,54.17
2018-04-19T22:12:05.618Z,52.91
2018-04-19T22:14:33.910Z,54.17
2018-04-19T22:17:02.581Z,54.24
2018-04-19T22:19:30.946Z,54.07
2018-04-19T22:21:59.349Z,54.75
2018-04-19T22:24:27.681Z,53.61
2018-04-19T22:26:56.105Z,53.35
2018-04-19T22:29:24.574Z,53.24
2018-04-19T22:31:52.866Z,53.97
2018-04-19T22:34:21.112Z,53.72
2018-04-19T22:36:49.418Z,52.88
2018-04-19T22:39:17.994Z,52.79
2018-04-19T22:41:46.665Z,55.01
2018-04-19T22:44:15.975Z,53.94
2018-04-19T22:46:44.651Z,54.93
2018-04-19T22:49:13.167Z,54.15
2018-04-19T22:51:41.310Z,56.65
2018-04-19T22:54:09.594Z,54.30
2018-04-19T22:56:38.173Z,54.27
2018-04-19T22:59:06.646Z,58.16
2018-04-19T23:01:34.925Z,54.14
2018-04-19T23:04:03.831Z,53.57
2018-04-19T23:06:32.500Z,54.63
2018-04-19T23:09:01.046Z,55.07
2018-04-19T23:11:29.782Z,53.97
2018-04-19T23:13:58.582Z,54.40
2018-04-19T23:16:26.826Z,53.37
2018-04-19T23:18:55.118Z,53.95
2018-04-19T23:21:23.582Z,53.07
2018-04-19T23:23:51.774Z,53.00
2018-04-19T23:26:20.877Z,51.89
2018-04-19T23:28:49.326Z,51.44
2018-04-19T23:31:17.776Z,53.10
2018-04-19T23:33:46.567Z,57.09
2018-04-19T23:36:14.881Z,58.26
2018-04-19T23:38:43.353Z,58.29
2018-04-19T23:41:11.840Z,57.13
2018-04-19T23:43:40.221Z,54.82
2018-04-19T23:46:08.556Z,54.43
2018-04-19T23:48:36.867Z,51.80
2018-04-19T23:51:05.258Z,51.89
2018-04-19T23:53:33.837Z,51.17
2018-04-19T23:56:02.515Z,52.93
2018-04-19T23:58:30.794Z,51.91
